sensor_id;sensor_type;location;lat;lon;timestamp;P1;durP1;ratioP1;P2;durP2;ratioP2
19414;SDS011;9843;48.882;12.592;2023-08-06T00:01:16;9.40;;;7.30;;
19414;SDS011;9843;48.882;12.592;2023-08-06T00:03:46;8.20;;;6.77;;
19414;SDS011;9843;48.882;12.592;2023-08-06T00:06:13;9.20;;;8.30;;
19414;SDS011;9843;48.882;12.592;2023-08-06T00:08:40;8.40;;;7.03;;
19414;SDS011;9843;48.882;12.592;2023-08-06T00:11:07;8.43;;;7.63;;
19414;SDS011;9843;48.882;12.592;2023-08-06T00:13:34;7.80;;;7.10;;
19414;SDS011;9843;48.882;12.592;2023-08-06T00:16:10;8.83;;;8.07;;
19414;SDS011;9843;48.882;12.592;2023-08-06T00:18:39;12.37;;;8.27;;
19414;SDS011;9843;48.882;12.592;2023-08-06T00:21:06;8.40;;;7.60;;
19414;SDS011;9843;48.882;12.592;2023-08-06T00:23:33;8.00;;;6.93;;
19414;SDS011;9843;48.882;12.592;2023-08-06T00:26:00;8.80;;;8.00;;
19414;SDS011;9843;48.882;12.592;2023-08-06T00:28:27;8.47;;;7.67;;
19414;SDS011;9843;48.882;12.592;2023-08-06T00:30:54;7.97;;;6.87;;
19414;SDS011;9843;48.882;12.592;2023-08-06T00:33:22;8.53;;;7.43;;
19414;SDS011;9843;48.882;12.592;2023-08-06T00:35:50;8.70;;;7.70;;
19414;SDS011;9843;48.882;12.592;2023-08-06T00:38:17;9.60;;;8.67;;
19414;SDS011;9843;48.882;12.592;2023-08-06T00:40:44;9.17;;;8.27;;
19414;SDS011;9843;48.882;12.592;2023-08-06T00:43:12;10.47;;;9.43;;
19414;SDS011;9843;48.882;12.592;2023-08-06T00:45:39;11.63;;;9.93;;
19414;SDS011;9843;48.882;12.592;2023-08-06T00:48:06;14.80;;;11.23;;
19414;SDS011;9843;48.882;12.592;2023-08-06T00:50:33;11.33;;;10.20;;
19414;SDS011;9843;48.882;12.592;2023-08-06T00:53:02;13.80;;;10.97;;
19414;SDS011;9843;48.882;12.592;2023-08-06T00:55:29;11.97;;;10.87;;
19414;SDS011;9843;48.882;12.592;2023-08-06T00:57:56;13.03;;;11.80;;
19414;SDS011;9843;48.882;12.592;2023-08-06T01:00:23;10.30;;;9.30;;
19414;SDS011;9843;48.882;12.592;2023-08-06T01:02:50;11.50;;;10.40;;
19414;SDS011;9843;48.882;12.592;2023-08-06T01:05:17;11.87;;;10.60;;
19414;SDS011;9843;48.882;12.592;2023-08-06T01:07:48;11.57;;;10.47;;
19414;SDS011;9843;48.882;12.592;2023-08-06T01:10:22;16.20;;;14.60;;
19414;SDS011;9843;48.882;12.592;2023-08-06T01:12:51;13.60;;;12.30;;
19414;SDS011;9843;48.882;12.592;2023-08-06T01:15:24;15.37;;;13.77;;
19414;SDS011;9843;48.882;12.592;2023-08-06T01:17:52;12.73;;;11.53;;
19414;SDS011;9843;48.882;12.592;2023-08-06T01:20:20;19.00;;;15.10;;
19414;SDS011;9843;48.882;12.592;2023-08-06T01:22:48;15.70;;;14.03;;
19414;SDS011;9843;48.882;12.592;2023-08-06T01:25:15;16.53;;;14.83;;
19414;SDS011;9843;48.882;12.592;2023-08-06T01:27:44;16.20;;;12.77;;
19414;SDS011;9843;48.882;12.592;2023-08-06T01:30:12;13.63;;;11.00;;
19414;SDS011;9843;48.882;12.592;2023-08-06T01:32:42;13.73;;;12.33;;
19414;SDS011;9843;48.882;12.592;2023-08-06T01:35:09;11.10;;;9.97;;
19414;SDS011;9843;48.882;12.592;2023-08-06T01:37:37;17.27;;;12.37;;
19414;SDS011;9843;48.882;12.592;2023-08-06T01:40:07;13.43;;;12.13;;
19414;SDS011;9843;48.882;12.592;2023-08-06T01:42:36;13.63;;;11.50;;
19414;SDS011;9843;48.882;12.592;2023-08-06T01:45:04;12.77;;;11.17;;
19414;SDS011;9843;48.882;12.592;2023-08-06T01:47:31;11.77;;;9.93;;
19414;SDS011;9843;48.882;12.592;2023-08-06T01:49:58;13.40;;;12.00;;
19414;SDS011;9843;48.882;12.592;2023-08-06T01:52:25;14.27;;;11.67;;
19414;SDS011;9843;48.882;12.592;2023-08-06T01:54:52;11.43;;;10.23;;
19414;SDS011;9843;48.882;12.592;2023-08-06T01:57:21;14.30;;;12.83;;
19414;SDS011;9843;48.882;12.592;2023-08-06T01:59:48;11.57;;;10.40;;
19414;SDS011;9843;48.882;12.592;2023-08-06T02:02:15;14.23;;;11.97;;
19414;SDS011;9843;48.882;12.592;2023-08-06T02:04:42;13.33;;;11.13;;
19414;SDS011;9843;48.882;12.592;2023-08-06T02:07:09;13.37;;;12.17;;
19414;SDS011;9843;48.882;12.592;2023-08-06T02:09:36;13.70;;;12.40;;
19414;SDS011;9843;48.882;12.592;2023-08-06T02:12:03;11.77;;;10.53;;
19414;SDS011;9843;48.882;12.592;2023-08-06T02:14:32;15.23;;;11.63;;
19414;SDS011;9843;48.882;12.592;2023-08-06T02:17:00;11.77;;;10.57;;
19414;SDS011;9843;48.882;12.592;2023-08-06T02:19:27;12.73;;;11.43;;
19414;SDS011;9843;48.882;12.592;2023-08-06T02:21:54;14.33;;;11.03;;
19414;SDS011;9843;48.882;12.592;2023-08-06T02:24:21;11.87;;;10.10;;
19414;SDS011;9843;48.882;12.592;2023-08-06T02:26:48;12.87;;;9.63;;
19414;SDS011;9843;48.882;12.592;2023-08-06T02:29:16;11.57;;;10.37;;
19414;SDS011;9843;48.882;12.592;2023-08-06T02:31:44;12.43;;;11.27;;
19414;SDS011;9843;48.882;12.592;2023-08-06T02:34:11;12.17;;;9.53;;
19414;SDS011;9843;48.882;12.592;2023-08-06T02:36:38;12.00;;;10.80;;
19414;SDS011;9843;48.882;12.592;2023-08-06T02:39:05;12.27;;;9.97;;
19414;SDS011;9843;48.882;12.592;2023-08-06T02:41:32;10.13;;;9.20;;
19414;SDS011;9843;48.882;12.592;2023-08-06T02:43:59;12.53;;;11.23;;
19414;SDS011;9843;48.882;12.592;2023-08-06T02:46:26;9.97;;;8.93;;
19414;SDS011;9843;48.882;12.592;2023-08-06T02:48:55;14.63;;;10.37;;
19414;SDS011;9843;48.882;12.592;2023-08-06T02:51:22;13.27;;;9.67;;
19414;SDS011;9843;48.882;12.592;2023-08-06T02:53:49;10.97;;;9.83;;
19414;SDS011;9843;48.882;12.592;2023-08-06T02:56:16;10.97;;;8.00;;
19414;SDS011;9843;48.882;12.592;2023-08-06T02:58:43;15.47;;;9.80;;
19414;SDS011;9843;48.882;12.592;2023-08-06T03:01:10;10.10;;;9.10;;
19414;SDS011;9843;48.882;12.592;2023-08-06T03:03:37;11.03;;;9.93;;
19414;SDS011;9843;48.882;12.592;2023-08-06T03:06:05;14.63;;;10.53;;
19414;SDS011;9843;48.882;12.592;2023-08-06T03:08:32;10.17;;;9.23;;
19414;SDS011;9843;48.882;12.592;2023-08-06T03:11:00;11.30;;;10.20;;
19414;SDS011;9843;48.882;12.592;2023-08-06T03:13:27;10.80;;;9.73;;
19414;SDS011;9843;48.882;12.592;2023-08-06T03:15:54;12.30;;;11.00;;
19414;SDS011;9843;48.882;12.592;2023-08-06T03:18:21;11.50;;;10.37;;
19414;SDS011;9843;48.882;12.592;2023-08-06T03:20:48;11.53;;;10.03;;
19414;SDS011;9843;48.882;12.592;2023-08-06T03:23:16;13.47;;;10.50;;
19414;SDS011;9843;48.882;12.592;2023-08-06T03:25:43;12.17;;;9.47;;
19414;SDS011;9843;48.882;12.592;2023-08-06T03:28:11;14.83;;;9.93;;
19414;SDS011;9843;48.882;12.592;2023-08-06T03:30:38;14.40;;;10.57;;
19414;SDS011;9843;48.882;12.592;2023-08-06T03:33:05;10.80;;;9.70;;
19414;SDS011;9843;48.882;12.592;2023-08-06T03:35:32;11.67;;;10.57;;
19414;SDS011;9843;48.882;12.592;2023-08-06T03:37:59;16.00;;;11.60;;
19414;SDS011;9843;48.882;12.592;2023-08-06T03:40:27;12.43;;;9.10;;
19414;SDS011;9843;48.882;12.592;2023-08-06T03:42:54;10.73;;;9.27;;
19414;SDS011;9843;48.882;12.592;2023-08-06T03:45:22;9.57;;;8.57;;
19414;SDS011;9843;48.882;12.592;2023-08-06T03:47:49;8.53;;;6.97;;
19414;SDS011;9843;48.882;12.592;2023-08-06T03:50:16;7.57;;;6.87;;
19414;SDS011;9843;48.882;12.592;2023-08-06T03:52:43;10.03;;;6.97;;
19414;SDS011;9843;48.882;12.592;2023-08-06T03:55:10;6.23;;;5.00;;
19414;SDS011;9843;48.882;12.592;2023-08-06T03:57:39;7.60;;;5.80;;
19414;SDS011;9843;48.882;12.592;2023-08-06T04:00:06;7.27;;;6.10;;
19414;SDS011;9843;48.882;12.592;2023-08-06T04:02:33;7.73;;;6.83;;
19414;SDS011;9843;48.882;12.592;2023-08-06T04:05:00;9.13;;;5.03;;
19414;SDS011;9843;48.882;12.592;2023-08-06T04:07:28;5.47;;;5.00;;
19414;SDS011;9843;48.882;12.592;2023-08-06T04:09:56;17.20;;;6.57;;
19414;SDS011;9843;48.882;12.592;2023-08-06T04:12:23;7.47;;;5.87;;
19414;SDS011;9843;48.882;12.592;2023-08-06T04:14:52;5.90;;;5.13;;
19414;SDS011;9843;48.882;12.592;2023-08-06T04:17:19;7.00;;;6.40;;
19414;SDS011;9843;48.882;12.592;2023-08-06T04:19:47;6.60;;;5.90;;
19414;SDS011;9843;48.882;12.592;2023-08-06T04:22:14;5.23;;;4.73;;
19414;SDS011;9843;48.882;12.592;2023-08-06T04:24:41;7.07;;;6.37;;
19414;SDS011;9843;48.882;12.592;2023-08-06T04:27:09;5.13;;;4.63;;
19414;SDS011;9843;48.882;12.592;2023-08-06T04:29:36;5.43;;;4.93;;
19414;SDS011;9843;48.882;12.592;2023-08-06T04:32:05;5.50;;;5.00;;
19414;SDS011;9843;48.882;12.592;2023-08-06T04:34:33;5.70;;;5.07;;
19414;SDS011;9843;48.882;12.592;2023-08-06T04:37:00;4.80;;;4.40;;
19414;SDS011;9843;48.882;12.592;2023-08-06T04:39:27;7.00;;;5.20;;
19414;SDS011;9843;48.882;12.592;2023-08-06T04:41:54;4.50;;;4.10;;
19414;SDS011;9843;48.882;12.592;2023-08-06T04:44:22;5.80;;;5.27;;
19414;SDS011;9843;48.882;12.592;2023-08-06T04:46:49;6.97;;;6.27;;
19414;SDS011;9843;48.882;12.592;2023-08-06T04:49:19;6.20;;;5.57;;
19414;SDS011;9843;48.882;12.592;2023-08-06T04:51:46;6.13;;;5.57;;
19414;SDS011;9843;48.882;12.592;2023-08-06T04:54:13;7.60;;;5.20;;
19414;SDS011;9843;48.882;12.592;2023-08-06T04:56:40;5.80;;;5.27;;
19414;SDS011;9843;48.882;12.592;2023-08-06T04:59:07;6.33;;;5.83;;
19414;SDS011;9843;48.882;12.592;2023-08-06T05:01:34;4.97;;;4.67;;
19414;SDS011;9843;48.882;12.592;2023-08-06T05:04:02;5.67;;;4.90;;
19414;SDS011;9843;48.882;12.592;2023-08-06T05:06:30;5.00;;;4.60;;
19414;SDS011;9843;48.882;12.592;2023-08-06T05:08:57;5.17;;;4.67;;
19414;SDS011;9843;48.882;12.592;2023-08-06T05:11:24;5.63;;;5.10;;
19414;SDS011;9843;48.882;12.592;2023-08-06T05:13:51;4.87;;;4.43;;
19414;SDS011;9843;48.882;12.592;2023-08-06T05:16:18;6.23;;;5.73;;
19414;SDS011;9843;48.882;12.592;2023-08-06T05:18:45;7.20;;;6.00;;
19414;SDS011;9843;48.882;12.592;2023-08-06T05:21:12;5.90;;;5.37;;
19414;SDS011;9843;48.882;12.592;2023-08-06T05:23:42;6.17;;;5.57;;
19414;SDS011;9843;48.882;12.592;2023-08-06T05:26:09;5.83;;;5.30;;
19414;SDS011;9843;48.882;12.592;2023-08-06T05:28:36;5.73;;;5.27;;
19414;SDS011;9843;48.882;12.592;2023-08-06T05:31:04;6.73;;;6.13;;
19414;SDS011;9843;48.882;12.592;2023-08-06T05:33:31;7.73;;;5.63;;
19414;SDS011;9843;48.882;12.592;2023-08-06T05:35:58;6.60;;;5.57;;
19414;SDS011;9843;48.882;12.592;2023-08-06T05:38:25;6.73;;;6.13;;
19414;SDS011;9843;48.882;12.592;2023-08-06T05:40:53;6.57;;;5.43;;
19414;SDS011;9843;48.882;12.592;2023-08-06T05:43:21;5.13;;;4.73;;
19414;SDS011;9843;48.882;12.592;2023-08-06T05:45:49;6.17;;;5.03;;
19414;SDS011;9843;48.882;12.592;2023-08-06T05:48:16;6.37;;;5.77;;
19414;SDS011;9843;48.882;12.592;2023-08-06T05:50:43;5.27;;;4.80;;
19414;SDS011;9843;48.882;12.592;2023-08-06T05:53:10;4.23;;;3.70;;
19414;SDS011;9843;48.882;12.592;2023-08-06T05:55:38;6.93;;;4.57;;
19414;SDS011;9843;48.882;12.592;2023-08-06T05:58:06;6.93;;;4.73;;
19414;SDS011;9843;48.882;12.592;2023-08-06T06:00:33;7.17;;;4.13;;
19414;SDS011;9843;48.882;12.592;2023-08-06T06:03:00;4.77;;;4.33;;
19414;SDS011;9843;48.882;12.592;2023-08-06T06:05:28;5.13;;;4.53;;
19414;SDS011;9843;48.882;12.592;2023-08-06T06:07:55;4.40;;;4.00;;
19414;SDS011;9843;48.882;12.592;2023-08-06T06:10:22;4.30;;;3.90;;
19414;SDS011;9843;48.882;12.592;2023-08-06T06:12:49;4.50;;;3.87;;
19414;SDS011;9843;48.882;12.592;2023-08-06T06:15:17;4.07;;;3.50;;
19414;SDS011;9843;48.882;12.592;2023-08-06T06:17:44;8.13;;;3.10;;
19414;SDS011;9843;48.882;12.592;2023-08-06T06:20:11;3.00;;;2.70;;
19414;SDS011;9843;48.882;12.592;2023-08-06T06:22:38;4.47;;;3.13;;
19414;SDS011;9843;48.882;12.592;2023-08-06T06:25:06;5.87;;;3.87;;
19414;SDS011;9843;48.882;12.592;2023-08-06T06:27:33;3.20;;;3.00;;
19414;SDS011;9843;48.882;12.592;2023-08-06T06:30:00;3.13;;;2.87;;
19414;SDS011;9843;48.882;12.592;2023-08-06T06:32:29;4.63;;;4.23;;
19414;SDS011;9843;48.882;12.592;2023-08-06T06:34:56;5.27;;;3.03;;
19414;SDS011;9843;48.882;12.592;2023-08-06T06:37:23;3.37;;;3.07;;
19414;SDS011;9843;48.882;12.592;2023-08-06T06:39:50;3.03;;;2.73;;
19414;SDS011;9843;48.882;12.592;2023-08-06T06:42:17;6.57;;;3.67;;
19414;SDS011;9843;48.882;12.592;2023-08-06T06:44:44;3.33;;;3.13;;
19414;SDS011;9843;48.882;12.592;2023-08-06T06:47:12;3.07;;;2.50;;
19414;SDS011;9843;48.882;12.592;2023-08-06T06:49:40;4.17;;;3.67;;
19414;SDS011;9843;48.882;12.592;2023-08-06T06:52:07;3.40;;;2.97;;
19414;SDS011;9843;48.882;12.592;2023-08-06T06:54:34;8.00;;;2.73;;
19414;SDS011;9843;48.882;12.592;2023-08-06T06:57:01;6.00;;;3.90;;
19414;SDS011;9843;48.882;12.592;2023-08-06T06:59:29;6.93;;;6.00;;
19414;SDS011;9843;48.882;12.592;2023-08-06T07:01:56;6.80;;;6.10;;
19414;SDS011;9843;48.882;12.592;2023-08-06T07:04:23;6.77;;;6.07;;
19414;SDS011;9843;48.882;12.592;2023-08-06T07:06:51;6.17;;;5.57;;
19414;SDS011;9843;48.882;12.592;2023-08-06T07:09:19;7.47;;;6.77;;
19414;SDS011;9843;48.882;12.592;2023-08-06T07:11:46;7.00;;;6.30;;
19414;SDS011;9843;48.882;12.592;2023-08-06T07:14:13;8.23;;;7.40;;
19414;SDS011;9843;48.882;12.592;2023-08-06T07:16:40;10.63;;;8.97;;
19414;SDS011;9843;48.882;12.592;2023-08-06T07:19:07;7.67;;;6.93;;
19414;SDS011;9843;48.882;12.592;2023-08-06T07:21:34;10.30;;;9.30;;
19414;SDS011;9843;48.882;12.592;2023-08-06T07:24:03;9.63;;;8.33;;
19414;SDS011;9843;48.882;12.592;2023-08-06T07:26:30;7.90;;;7.10;;
19414;SDS011;9843;48.882;12.592;2023-08-06T07:28:57;6.90;;;6.30;;
19414;SDS011;9843;48.882;12.592;2023-08-06T07:31:24;5.57;;;5.07;;
19414;SDS011;9843;48.882;12.592;2023-08-06T07:33:51;5.33;;;4.77;;
19414;SDS011;9843;48.882;12.592;2023-08-06T07:36:18;4.93;;;4.53;;
19414;SDS011;9843;48.882;12.592;2023-08-06T07:38:45;5.10;;;4.13;;
19414;SDS011;9843;48.882;12.592;2023-08-06T07:41:17;4.17;;;3.50;;
19414;SDS011;9843;48.882;12.592;2023-08-06T07:43:44;4.37;;;3.97;;
19414;SDS011;9843;48.882;12.592;2023-08-06T07:46:11;7.87;;;3.27;;
19414;SDS011;9843;48.882;12.592;2023-08-06T07:48:39;3.17;;;2.50;;
19414;SDS011;9843;48.882;12.592;2023-08-06T07:51:06;5.00;;;2.70;;
19414;SDS011;9843;48.882;12.592;2023-08-06T07:53:33;3.90;;;2.53;;
19414;SDS011;9843;48.882;12.592;2023-08-06T07:56:00;4.50;;;3.53;;
19414;SDS011;9843;48.882;12.592;2023-08-06T07:58:29;5.20;;;2.97;;
19414;SDS011;9843;48.882;12.592;2023-08-06T08:00:56;3.93;;;2.50;;
19414;SDS011;9843;48.882;12.592;2023-08-06T08:03:23;2.47;;;2.20;;
19414;SDS011;9843;48.882;12.592;2023-08-06T08:05:53;3.27;;;2.47;;
19414;SDS011;9843;48.882;12.592;2023-08-06T08:08:22;4.57;;;1.90;;
19414;SDS011;9843;48.882;12.592;2023-08-06T08:10:49;3.83;;;2.13;;
19414;SDS011;9843;48.882;12.592;2023-08-06T08:13:16;2.60;;;2.13;;
19414;SDS011;9843;48.882;12.592;2023-08-06T08:15:45;11.20;;;3.00;;
19414;SDS011;9843;48.882;12.592;2023-08-06T08:18:12;2.47;;;2.23;;
19414;SDS011;9843;48.882;12.592;2023-08-06T08:20:39;2.93;;;1.97;;
19414;SDS011;9843;48.882;12.592;2023-08-06T08:23:06;4.03;;;3.67;;
19414;SDS011;9843;48.882;12.592;2023-08-06T08:25:33;4.13;;;2.23;;
19414;SDS011;9843;48.882;12.592;2023-08-06T08:28:00;3.43;;;2.63;;
19414;SDS011;9843;48.882;12.592;2023-08-06T08:30:27;2.00;;;1.80;;
19414;SDS011;9843;48.882;12.592;2023-08-06T08:32:55;5.30;;;2.40;;
19414;SDS011;9843;48.882;12.592;2023-08-06T08:35:22;2.20;;;1.70;;
19414;SDS011;9843;48.882;12.592;2023-08-06T08:37:49;2.70;;;1.90;;
19414;SDS011;9843;48.882;12.592;2023-08-06T08:40:17;2.03;;;1.20;;
19414;SDS011;9843;48.882;12.592;2023-08-06T08:42:44;2.13;;;1.93;;
19414;SDS011;9843;48.882;12.592;2023-08-06T08:45:12;1.63;;;1.53;;
19414;SDS011;9843;48.882;12.592;2023-08-06T08:47:39;2.07;;;1.53;;
19414;SDS011;9843;48.882;12.592;2023-08-06T08:50:09;1.80;;;1.47;;
19414;SDS011;9843;48.882;12.592;2023-08-06T08:52:38;4.03;;;2.30;;
19414;SDS011;9843;48.882;12.592;2023-08-06T08:55:06;1.83;;;1.30;;
19414;SDS011;9843;48.882;12.592;2023-08-06T08:57:34;4.07;;;1.57;;
19414;SDS011;9843;48.882;12.592;2023-08-06T09:00:01;6.03;;;2.67;;
19414;SDS011;9843;48.882;12.592;2023-08-06T09:02:28;1.40;;;1.00;;
19414;SDS011;9843;48.882;12.592;2023-08-06T09:04:55;1.40;;;1.27;;
19414;SDS011;9843;48.882;12.592;2023-08-06T09:07:26;2.80;;;2.20;;
19414;SDS011;9843;48.882;12.592;2023-08-06T09:09:53;2.00;;;1.50;;
19414;SDS011;9843;48.882;12.592;2023-08-06T09:12:22;5.63;;;2.37;;
19414;SDS011;9843;48.882;12.592;2023-08-06T09:14:49;4.37;;;1.73;;
19414;SDS011;9843;48.882;12.592;2023-08-06T09:17:16;3.17;;;1.53;;
19414;SDS011;9843;48.882;12.592;2023-08-06T09:19:44;1.30;;;1.07;;
19414;SDS011;9843;48.882;12.592;2023-08-06T09:22:13;2.33;;;1.77;;
19414;SDS011;9843;48.882;12.592;2023-08-06T09:24:42;1.93;;;1.23;;
19414;SDS011;9843;48.882;12.592;2023-08-06T09:27:12;1.55;;;1.17;;
19414;SDS011;9843;48.882;12.592;2023-08-06T09:29:40;3.40;;;1.90;;
19414;SDS011;9843;48.882;12.592;2023-08-06T09:32:08;2.60;;;1.43;;
19414;SDS011;9843;48.882;12.592;2023-08-06T09:34:35;1.63;;;1.30;;
19414;SDS011;9843;48.882;12.592;2023-08-06T09:37:02;1.43;;;1.20;;
19414;SDS011;9843;48.882;12.592;2023-08-06T09:39:30;2.50;;;1.60;;
19414;SDS011;9843;48.882;12.592;2023-08-06T09:41:59;1.07;;;1.07;;
19414;SDS011;9843;48.882;12.592;2023-08-06T09:44:26;1.80;;;1.60;;
19414;SDS011;9843;48.882;12.592;2023-08-06T09:46:54;1.73;;;1.03;;
19414;SDS011;9843;48.882;12.592;2023-08-06T09:49:24;0.97;;;0.93;;
19414;SDS011;9843;48.882;12.592;2023-08-06T09:51:51;1.33;;;1.13;;
19414;SDS011;9843;48.882;12.592;2023-08-06T09:54:22;1.07;;;0.97;;
19414;SDS011;9843;48.882;12.592;2023-08-06T09:59:21;0.83;;;0.83;;
19414;SDS011;9843;48.882;12.592;2023-08-06T10:01:49;1.23;;;0.90;;
19414;SDS011;9843;48.882;12.592;2023-08-06T10:04:16;1.20;;;1.00;;
19414;SDS011;9843;48.882;12.592;2023-08-06T10:06:46;0.98;;;0.90;;
19414;SDS011;9843;48.882;12.592;2023-08-06T10:09:13;2.33;;;0.70;;
19414;SDS011;9843;48.882;12.592;2023-08-06T10:11:40;2.90;;;1.70;;
19414;SDS011;9843;48.882;12.592;2023-08-06T10:14:10;1.30;;;0.95;;
19414;SDS011;9843;48.882;12.592;2023-08-06T10:16:40;1.07;;;0.80;;
19414;SDS011;9843;48.882;12.592;2023-08-06T10:19:09;1.57;;;1.00;;
19414;SDS011;9843;48.882;12.592;2023-08-06T10:21:37;1.17;;;0.80;;
19414;SDS011;9843;48.882;12.592;2023-08-06T10:24:06;0.60;;;0.60;;
19414;SDS011;9843;48.882;12.592;2023-08-06T10:26:35;1.50;;;0.73;;
19414;SDS011;9843;48.882;12.592;2023-08-06T10:31:55;0.73;;;0.50;;
19414;SDS011;9843;48.882;12.592;2023-08-06T10:34:22;0.90;;;0.60;;
19414;SDS011;9843;48.882;12.592;2023-08-06T10:36:49;0.70;;;0.35;;
19414;SDS011;9843;48.882;12.592;2023-08-06T10:39:16;0.93;;;0.30;;
19414;SDS011;9843;48.882;12.592;2023-08-06T10:41:43;0.50;;;0.28;;
19414;SDS011;9843;48.882;12.592;2023-08-06T10:44:11;0.20;;;0.20;;
19414;SDS011;9843;48.882;12.592;2023-08-06T10:46:38;0.63;;;0.45;;
19414;SDS011;9843;48.882;12.592;2023-08-06T10:49:07;1.15;;;0.50;;
19414;SDS011;9843;48.882;12.592;2023-08-06T10:51:34;0.52;;;0.50;;
19414;SDS011;9843;48.882;12.592;2023-08-06T10:54:01;0.80;;;0.40;;
19414;SDS011;9843;48.882;12.592;2023-08-06T10:56:29;1.20;;;0.60;;
19414;SDS011;9843;48.882;12.592;2023-08-06T10:58:56;1.60;;;0.50;;
19414;SDS011;9843;48.882;12.592;2023-08-06T11:01:23;0.50;;;0.43;;
19414;SDS011;9843;48.882;12.592;2023-08-06T11:03:51;0.60;;;0.57;;
19414;SDS011;9843;48.882;12.592;2023-08-06T11:06:20;1.03;;;0.50;;
19414;SDS011;9843;48.882;12.592;2023-08-06T11:08:47;0.50;;;0.50;;
19414;SDS011;9843;48.882;12.592;2023-08-06T11:11:15;1.33;;;0.40;;
19414;SDS011;9843;48.882;12.592;2023-08-06T11:13:43;0.50;;;0.50;;
19414;SDS011;9843;48.882;12.592;2023-08-06T11:16:11;0.80;;;0.70;;
19414;SDS011;9843;48.882;12.592;2023-08-06T11:18:39;3.97;;;1.17;;
19414;SDS011;9843;48.882;12.592;2023-08-06T11:21:07;4.10;;;0.83;;
19414;SDS011;9843;48.882;12.592;2023-08-06T11:23:35;6.17;;;2.10;;
19414;SDS011;9843;48.882;12.592;2023-08-06T11:26:02;5.10;;;2.03;;
19414;SDS011;9843;48.882;12.592;2023-08-06T11:28:29;2.87;;;1.07;;
19414;SDS011;9843;48.882;12.592;2023-08-06T11:30:57;2.80;;;2.10;;
19414;SDS011;9843;48.882;12.592;2023-08-06T11:33:27;1.73;;;1.13;;
19414;SDS011;9843;48.882;12.592;2023-08-06T11:35:55;1.17;;;1.03;;
19414;SDS011;9843;48.882;12.592;2023-08-06T11:38:24;1.50;;;1.20;;
19414;SDS011;9843;48.882;12.592;2023-08-06T11:40:53;2.00;;;1.53;;
19414;SDS011;9843;48.882;12.592;2023-08-06T11:43:20;1.67;;;1.50;;
19414;SDS011;9843;48.882;12.592;2023-08-06T11:45:47;1.30;;;1.20;;
19414;SDS011;9843;48.882;12.592;2023-08-06T11:48:15;1.23;;;1.00;;
19414;SDS011;9843;48.882;12.592;2023-08-06T11:50:43;1.10;;;1.00;;
19414;SDS011;9843;48.882;12.592;2023-08-06T11:53:11;1.10;;;1.10;;
19414;SDS011;9843;48.882;12.592;2023-08-06T11:55:39;1.43;;;1.30;;
19414;SDS011;9843;48.882;12.592;2023-08-06T11:58:08;1.60;;;1.50;;
19414;SDS011;9843;48.882;12.592;2023-08-06T12:00:36;1.30;;;1.20;;
19414;SDS011;9843;48.882;12.592;2023-08-06T12:03:04;1.60;;;1.43;;
19414;SDS011;9843;48.882;12.592;2023-08-06T12:05:31;1.13;;;1.10;;
19414;SDS011;9843;48.882;12.592;2023-08-06T12:07:59;4.40;;;1.90;;
19414;SDS011;9843;48.882;12.592;2023-08-06T12:10:27;2.77;;;1.53;;
19414;SDS011;9843;48.882;12.592;2023-08-06T12:12:54;2.23;;;1.30;;
19414;SDS011;9843;48.882;12.592;2023-08-06T12:15:23;1.00;;;1.00;;
19414;SDS011;9843;48.882;12.592;2023-08-06T12:17:50;1.03;;;1.03;;
19414;SDS011;9843;48.882;12.592;2023-08-06T12:20:17;2.13;;;1.23;;
19414;SDS011;9843;48.882;12.592;2023-08-06T12:22:44;1.87;;;1.27;;
19414;SDS011;9843;48.882;12.592;2023-08-06T12:25:12;1.10;;;1.00;;
19414;SDS011;9843;48.882;12.592;2023-08-06T12:27:39;1.93;;;1.33;;
19414;SDS011;9843;48.882;12.592;2023-08-06T12:30:07;1.70;;;1.33;;
19414;SDS011;9843;48.882;12.592;2023-08-06T12:32:36;1.10;;;1.10;;
19414;SDS011;9843;48.882;12.592;2023-08-06T12:35:03;1.67;;;1.20;;
19414;SDS011;9843;48.882;12.592;2023-08-06T12:37:32;0.93;;;0.93;;
19414;SDS011;9843;48.882;12.592;2023-08-06T12:39:59;2.87;;;0.80;;
19414;SDS011;9843;48.882;12.592;2023-08-06T12:42:26;0.97;;;0.70;;
19414;SDS011;9843;48.882;12.592;2023-08-06T12:44:53;4.83;;;0.83;;
19414;SDS011;9843;48.882;12.592;2023-08-06T12:47:20;0.77;;;0.77;;
19414;SDS011;9843;48.882;12.592;2023-08-06T12:49:49;2.10;;;1.00;;
19414;SDS011;9843;48.882;12.592;2023-08-06T12:52:16;0.90;;;0.90;;
19414;SDS011;9843;48.882;12.592;2023-08-06T12:54:44;1.57;;;0.90;;
19414;SDS011;9843;48.882;12.592;2023-08-06T12:57:12;0.80;;;0.80;;
19414;SDS011;9843;48.882;12.592;2023-08-06T12:59:39;0.70;;;0.70;;
19414;SDS011;9843;48.882;12.592;2023-08-06T13:02:06;0.87;;;0.87;;
19414;SDS011;9843;48.882;12.592;2023-08-06T13:04:33;0.90;;;0.90;;
19414;SDS011;9843;48.882;12.592;2023-08-06T13:07:02;0.80;;;0.80;;
19414;SDS011;9843;48.882;12.592;2023-08-06T13:09:31;0.90;;;0.90;;
19414;SDS011;9843;48.882;12.592;2023-08-06T13:11:58;1.90;;;0.90;;
19414;SDS011;9843;48.882;12.592;2023-08-06T13:14:30;2.40;;;1.33;;
19414;SDS011;9843;48.882;12.592;2023-08-06T13:16:57;1.10;;;1.00;;
19414;SDS011;9843;48.882;12.592;2023-08-06T13:19:24;2.10;;;1.90;;
19414;SDS011;9843;48.882;12.592;2023-08-06T13:22:02;0.90;;;0.90;;
19414;SDS011;9843;48.882;12.592;2023-08-06T13:24:31;1.23;;;0.90;;
19414;SDS011;9843;48.882;12.592;2023-08-06T13:26:59;3.17;;;0.93;;
19414;SDS011;9843;48.882;12.592;2023-08-06T13:29:26;0.80;;;0.80;;
19414;SDS011;9843;48.882;12.592;2023-08-06T13:31:53;1.03;;;0.90;;
19414;SDS011;9843;48.882;12.592;2023-08-06T13:34:21;1.20;;;1.10;;
19414;SDS011;9843;48.882;12.592;2023-08-06T13:36:48;1.73;;;0.80;;
19414;SDS011;9843;48.882;12.592;2023-08-06T13:39:17;0.80;;;0.70;;
19414;SDS011;9843;48.882;12.592;2023-08-06T13:41:44;1.40;;;1.10;;
19414;SDS011;9843;48.882;12.592;2023-08-06T13:44:11;1.83;;;0.87;;
19414;SDS011;9843;48.882;12.592;2023-08-06T13:46:40;0.97;;;0.90;;
19414;SDS011;9843;48.882;12.592;2023-08-06T13:49:07;1.23;;;1.13;;
19414;SDS011;9843;48.882;12.592;2023-08-06T13:51:34;0.90;;;0.90;;
19414;SDS011;9843;48.882;12.592;2023-08-06T13:54:01;2.13;;;1.47;;
19414;SDS011;9843;48.882;12.592;2023-08-06T13:56:29;1.17;;;1.10;;
19414;SDS011;9843;48.882;12.592;2023-08-06T13:58:56;0.80;;;0.80;;
19414;SDS011;9843;48.882;12.592;2023-08-06T14:01:24;0.83;;;0.83;;
19414;SDS011;9843;48.882;12.592;2023-08-06T14:03:51;0.80;;;0.80;;
19414;SDS011;9843;48.882;12.592;2023-08-06T14:06:18;2.53;;;1.20;;
19414;SDS011;9843;48.882;12.592;2023-08-06T14:08:45;0.90;;;0.90;;
19414;SDS011;9843;48.882;12.592;2023-08-06T14:11:12;1.70;;;1.60;;
19414;SDS011;9843;48.882;12.592;2023-08-06T14:13:41;1.00;;;0.90;;
19414;SDS011;9843;48.882;12.592;2023-08-06T14:16:08;1.70;;;0.90;;
19414;SDS011;9843;48.882;12.592;2023-08-06T14:18:35;0.80;;;0.80;;
19414;SDS011;9843;48.882;12.592;2023-08-06T14:21:03;1.07;;;1.00;;
19414;SDS011;9843;48.882;12.592;2023-08-06T14:23:30;1.60;;;1.03;;
19414;SDS011;9843;48.882;12.592;2023-08-06T14:25:57;0.80;;;0.80;;
19414;SDS011;9843;48.882;12.592;2023-08-06T14:28:24;1.20;;;1.10;;
19414;SDS011;9843;48.882;12.592;2023-08-06T14:30:52;0.80;;;0.80;;
19414;SDS011;9843;48.882;12.592;2023-08-06T14:33:20;0.83;;;0.80;;
19414;SDS011;9843;48.882;12.592;2023-08-06T14:35:47;0.87;;;0.87;;
19414;SDS011;9843;48.882;12.592;2023-08-06T14:38:14;0.90;;;0.90;;
19414;SDS011;9843;48.882;12.592;2023-08-06T14:40:43;0.80;;;0.80;;
19414;SDS011;9843;48.882;12.592;2023-08-06T14:43:10;1.47;;;1.47;;
19414;SDS011;9843;48.882;12.592;2023-08-06T14:45:37;0.93;;;0.93;;
19414;SDS011;9843;48.882;12.592;2023-08-06T14:48:06;0.73;;;0.73;;
19414;SDS011;9843;48.882;12.592;2023-08-06T14:50:33;0.90;;;0.90;;